Brisbane - nearby METAR Reports

YBBN - Brisbane Intl Ar, Australia
Distance from station: NNE 11km
Updated: 19/02/2019 23:00
Partly cloudy
Partly cloudy
 Wind from calm
Wind: Calm
Temperature: 24°C
Dew Point: 22°C
Humidity: 89%
Barometer: 1007 hPa
Clouds: Partly cloudy
Visibility: 10 km
Cloud details: Few Clouds 518 m
Partly cloudy 1219 m
2019/02/19 13:00 YBBN 191300Z 00000KT 9999 FEW017 SCT040 24/22 Q1007 FM1500 20006KT 9999 SCT020
YAMB - Amberley, Australia
Distance from station: WSW 42km
Updated: 19/02/2019 23:30
Clear
Clear
 Wind from SE
Wind: SE 11 km/h
Temperature: 23°C
Dew Point: 20°C
Humidity: 83%
Barometer: 1007 hPa
Clouds: Clear
Visibility: 10 km
2019/02/19 13:30 YAMB 191330Z AUTO 13006KT 9999 // NCD 23/20 Q1007
 
YBCG - Coolangatta Aws, Australia
Distance from station: SSE 102km
Updated: 19/02/2019 23:30
Mostly cloudy
Mostly cloudy
 Wind from WNW
Wind: WNW 7 km/h
Temperature: 22°C
Dew Point: 20°C
Humidity: 88%
Barometer: 1007 hPa
Clouds: Mostly cloudy
Visibility: 10 km
Cloud details: Mostly cloudy 549 m
2019/02/19 13:30 YBCG 191330Z AUTO 29004KT 9999 // BKN018 22/20 Q1007 RF00.0/000.0